EGSH

Norwich International Airport

Norwich, United Kingdom
TAF EGSH 170203Z 1703/1712 27009KT 9999 SCT016 PROB30 1703/1705 BKN010 PROB30 TEMPO 1705/1709 31015G25KT 4000 SHRASN BKN004
Issued Valid From Valid To
Jan-17 @ 02:03 UTC
(3 hours ago)
Jan-17 @ 03:00 UTC
(2 hours ago)
Jan-17 @ 12:00 UTC
(in 7 hours)
Jan-17 @ 03:00 to Jan-17 @ 12:00
TAF EGSH 170203Z 1703/1712 27009KT 9999 SCT016
Wind Visibility Clouds
270° at 9 knots 10,000+ meters
  • Scattered at 1,600' AGL
Probable  (Probability 30%) Jan-17 @ 03:00 to Jan-17 @ 05:00
PROB30 1703/1705 BKN010
Clouds
  • Broken at 1,000' AGL
Temporary  (Probability 30%) Jan-17 @ 05:00 to Jan-17 @ 09:00
PROB30 TEMPO 1705/1709 31015G25KT 4000 SHRASN BKN004
Wind Visibility Clouds Conditions
310° at 15 knots
 Gusting to 25 knots
4,007 meters
  • Broken at 400' AGL
  • Rain
  • Snow
TAF EGSH 170203Z 1703/1712 27009KT 9999 SCT016 PROB30 1703/1705 BKN010 PROB30 TEMPO 1705/1709 31015G25KT 4000 SHRASN BKN004
Issued Jan-17 @ 02:03 UTC
(3 hours ago)
Valid From Jan-17 @ 03:00 UTC
(2 hours ago)
Valid To Jan-17 @ 12:00 UTC
(in 7 hours)
Jan-17 @ 03:00 - Jan-17 @ 12:00
Wind Visibility
270° at 9 knots 10,000+ meters
Clouds
  • Scattered at 1,600' AGL
Probability 30% Probable Jan-17 @ 03:00 - Jan-17 @ 05:00
Clouds
  • Broken at 1,000' AGL
Probability 30% Temporary Jan-17 @ 05:00 - Jan-17 @ 09:00
Wind Visibility
310° at 15 knots
 Gusting to 25 knots
4,007 meters
Clouds
  • Broken at 400' AGL
Conditions
  • Rain
  • Snow